Salem, Nebraska
Current Conditions -  °F | °C
As of 8:53 PM on Tuesday 21 Oct 2014 (Local Time) from KFNB Reporting Station
Clear Clear  
Wind Chill: 56°   Ceiling: Unl
Heat Index: 56°   Visibility: 10mi
Dew Point: 40°   Wind: 8mph
Humidity: 55%   Direction: 120°ESE
Pressure: 30.06"   Gusts: NA
Location:  40.08°N, 95.72°W
Report Text: KFNB 220153Z AUTO 12007KT 10SM CLR 13/04 A3006 RMK AO2 SLP181 T01330044
Loading
Personal Weather Stations






























Interactive Weather Map
Tropical Storm Tracking
New forecast layout! Learn more

10-Day Weather Forecast

Advertisements
Track Severe Weather on mobile